• Join FlightAware (Why Join?)
  • Login
  • US Flag 
02:59PM EDT


 

Airport Tracker/Info


-or-


 

Live Flight TrackerFlight Track Log ✈ N1531C ✈ 23-Jun-2013 ✈ KPDK - KMGM

Flight Track Log - Related Links

Times and Time Zones

All times are in EDT time to prevent confusion due to time zone crossing. See the N1531C flight status page for this flight to view local times or setup timezone preferences in your user account.

Time Position Orientation Groundspeed Altitude Reporting Facility
EDT Latitude Longitude Course Direction KTS MPH feet Rate Location/Type
09:57AM 33.8667 -84.3333 270° West 126 145 1,900  Level Atlanta TRACON
09:58AM 33.8667 -84.3833 270° West 131 151 2,800 840 Climbing Atlanta TRACON
09:59AM 33.8500 -84.4167 239° Southwest 130 150 3,600 780 Climbing Atlanta TRACON
10:00AM 33.8500 -84.4667 270° West 135 155 4,400 600 Climbing Atlanta TRACON
10:01AM 33.8500 -84.5000 270° West 143 165 4,900 240 Climbing Atlanta TRACON
10:02AM 33.8500 -84.5667 270° West 176 203 4,900  Level Atlanta TRACON
10:03AM 33.8500 -84.6167 270° West 184 212 4,900  Level Atlanta TRACON
10:04AM 33.8500 -84.6833 270° West 176 203 4,900  Level Atlanta TRACON
10:04AM 33.8500 -84.7333 270° West 174 200 4,900  Level Atlanta TRACON
10:06AM 33.8500 -84.8000 270° West 175 201 4,900  Level Atlanta TRACON
10:07AM 33.8500 -84.8500 270° West 173 199 4,900 120 Level Atlanta TRACON
10:07AM 33.8436 -84.8867 258° West 182 209 5,100 420 Climbing Atlanta Center
10:08AM 33.8389 -84.9417 264° West 178 205 5,600 480 Climbing Atlanta Center
10:09AM 33.8344 -84.9917 264° West 164 189 6,100 420 Climbing Atlanta Center
10:10AM 33.8008 -85.0189 214° Southwest 144 166 6,500 420 Climbing Atlanta Center
10:11AM 33.7692 -85.0483 218° Southwest 149 171 7,000 480 Climbing Atlanta Center
10:12AM 33.7378 -85.0781 218° Southwest 149 171 7,500 420 Climbing Atlanta Center
10:13AM 33.7061 -85.1075 218° Southwest 149 171 7,900 180 Climbing Atlanta Center
10:14AM 33.6744 -85.1372 218° Southwest 149 171 7,900  Level Atlanta Center
10:15AM 33.6408 -85.1692 218° Southwest 160 184 7,900  Level Atlanta Center
10:16AM 33.6050 -85.2036 219° Southwest 160 184 7,900  Level Atlanta Center
10:17AM 33.5692 -85.2356 217° Southwest 160 184 7,900  Level Atlanta Center
10:18AM 33.5356 -85.2675 218° Southwest 160 184 7,900  Level Atlanta Center
10:19AM 33.5019 -85.2994 218° Southwest 160 184 7,900  Level Atlanta Center
10:20AM 33.4681 -85.3336 220° Southwest 160 184 7,900  Level Atlanta Center
10:21AM 33.4303 -85.3681 217° Southwest 160 184 7,900  Level Atlanta Center
10:22AM 33.3964 -85.3997 218° Southwest 160 184 7,900  Level Atlanta Center
10:23AM 33.3606 -85.4317 217° Southwest 160 184 7,900  Level Atlanta Center
10:24AM 33.3289 -85.4608 218° Southwest 155 178 7,900 -60 Level Atlanta Center
10:25AM 33.2953 -85.4878 214° Southwest 155 178 7,800 -60 Descending Atlanta Center
10:26AM 33.2614 -85.5169 216° Southwest 155 178 7,800  Level Atlanta Center
10:27AM 33.2278 -85.5486 218° Southwest 155 178 7,800  Level Atlanta Center
10:28AM 33.1939 -85.5803 218° Southwest 160 184 7,800  Level Atlanta Center
10:29AM 33.1622 -85.6119 220° Southwest 160 184 7,900  Climbing Atlanta Center
10:30AM 33.1264 -85.6436 217° Southwest 160 184 7,900  Level Atlanta Center
10:31AM 33.0925 -85.6728 216° Southwest 160 184 7,900  Level Atlanta Center
10:32AM 33.0586 -85.7069 220° Southwest 160 184 7,900  Level Atlanta Center
10:33AM 33.0250 -85.7361 216° Southwest 160 184 7,900  Level Atlanta Center
10:34AM 32.9911 -85.7650 216° Southwest 160 184 7,900  Level Atlanta Center
10:35AM 32.9592 -85.7992 222° Southwest 160 184 8,000  Climbing Atlanta Center
10:36AM 32.9233 -85.8306 216° Southwest 160 184 8,000  Level Atlanta Center
10:37AM 32.8894 -85.8619 218° Southwest 160 184 8,000  Level Atlanta Center
10:38AM 32.8556 -85.8908 216° Southwest 160 184 8,000 -180 Level Atlanta Center
10:39AM 32.8258 -85.9297 228° Southwest 160 184 7,700 -540 Descending Atlanta Center
10:40AM 32.7958 -85.9736 231° Southwest 168 193 7,000 -780 Descending Atlanta Center
10:41AM 32.7639 -86.0200 231° Southwest 179 206 6,200 -780 Descending Atlanta Center
10:42AM 32.7319 -86.0661 231° Southwest 184 212 5,500 -720 Descending Atlanta Center
10:44AM 32.6629 -86.0518 217° Southwest  Level FlightAware Approximate
10:51AM 32.4269 -86.2661 216° Southwest  Level FlightAware Approximate
10:52AM 32.3927 -86.2960 216° Southwest  Level FlightAware Approximate
10:53AM 32.3586 -86.3258 216° Southwest  Level FlightAware Approximate
10:54AM 32.3257 -86.3576 220° Southwest  Level FlightAware Approximate
10:55AM 32.3000 -86.3833 220° Southwest  Level FlightAware Approximate
10:56AM 32.3006 -86.3940 220° Southwest  Level Estimated
10:57AM 32.3006 -86.3940 220° Southwest  Level Estimated
10:58AM 32.3006 -86.3940 220° Southwest  Level Estimated
10:59AM 32.3006 -86.3940 220° Southwest  Level Estimated
11:00AM 32.3006 -86.3940 220° Southwest  Level Estimated
11:01AM 32.3006 -86.3940 220° Southwest  Level Estimated
11:02AM 32.3006 -86.3940 220° Southwest  Level Estimated
11:03AM 32.3006 -86.3940 220° Southwest  Level Estimated
11:04AM 32.3006 -86.3940 220° Southwest  Level Estimated
11:05AM 32.3006 -86.3940 220° Southwest  Level Estimated
11:06AM 32.3006 -86.3940 220° Southwest  Level Estimated
11:07AM 32.3006 -86.3940 220° Southwest  Level Estimated
11:08AM 32.3006 -86.3940 220° Southwest  Level Estimated
11:09AM 32.3006 -86.3940 220° Southwest  Level Estimated
11:10AM 32.3006 -86.3940 220° Southwest  Level Estimated
11:11AM 32.3006 -86.3940 220° Southwest  Level Estimated
11:12AM 32.3006 -86.3940 220° Southwest  Level Estimated